sensor_id;sensor_type;location;lat;lon;timestamp;temperature;humidity
7762;DHT22;3925;48.636;9.516;2022-07-12T00:00:33;15.50;99.90
7762;DHT22;3925;48.636;9.516;2022-07-12T00:03:00;15.60;99.90
7762;DHT22;3925;48.636;9.516;2022-07-12T00:05:27;15.60;99.90
7762;DHT22;3925;48.636;9.516;2022-07-12T00:07:55;15.60;99.90
7762;DHT22;3925;48.636;9.516;2022-07-12T00:10:22;15.70;99.90
7762;DHT22;3925;48.636;9.516;2022-07-12T00:12:49;15.60;99.90
7762;DHT22;3925;48.636;9.516;2022-07-12T00:15:16;15.70;99.90
7762;DHT22;3925;48.636;9.516;2022-07-12T00:17:43;15.60;99.90
7762;DHT22;3925;48.636;9.516;2022-07-12T00:20:10;15.50;99.90
7762;DHT22;3925;48.636;9.516;2022-07-12T00:22:37;15.40;99.90
7762;DHT22;3925;48.636;9.516;2022-07-12T00:25:07;15.40;99.90
7762;DHT22;3925;48.636;9.516;2022-07-12T00:27:34;15.50;99.90
7762;DHT22;3925;48.636;9.516;2022-07-12T00:30:02;15.50;99.90
7762;DHT22;3925;48.636;9.516;2022-07-12T00:32:29;15.60;99.90
7762;DHT22;3925;48.636;9.516;2022-07-12T00:34:55;15.50;99.90
7762;DHT22;3925;48.636;9.516;2022-07-12T00:37:22;15.40;99.90
7762;DHT22;3925;48.636;9.516;2022-07-12T00:39:50;15.30;99.90
7762;DHT22;3925;48.636;9.516;2022-07-12T00:42:19;15.30;99.90
7762;DHT22;3925;48.636;9.516;2022-07-12T00:44:46;15.40;99.90
7762;DHT22;3925;48.636;9.516;2022-07-12T00:47:22;15.40;99.90
7762;DHT22;3925;48.636;9.516;2022-07-12T00:49:52;15.40;99.90
7762;DHT22;3925;48.636;9.516;2022-07-12T00:52:19;15.30;99.90
7762;DHT22;3925;48.636;9.516;2022-07-12T00:54:46;15.30;99.90
7762;DHT22;3925;48.636;9.516;2022-07-12T00:57:13;15.10;99.90
7762;DHT22;3925;48.636;9.516;2022-07-12T00:59:42;15.10;99.90
7762;DHT22;3925;48.636;9.516;2022-07-12T01:02:09;15.10;99.90
7762;DHT22;3925;48.636;9.516;2022-07-12T01:04:36;15.10;99.90
7762;DHT22;3925;48.636;9.516;2022-07-12T01:07:04;15.00;99.90
7762;DHT22;3925;48.636;9.516;2022-07-12T01:09:31;15.10;99.90
7762;DHT22;3925;48.636;9.516;2022-07-12T01:11:58;15.00;99.90
7762;DHT22;3925;48.636;9.516;2022-07-12T01:14:25;15.10;99.90
7762;DHT22;3925;48.636;9.516;2022-07-12T01:16:54;15.10;99.90
7762;DHT22;3925;48.636;9.516;2022-07-12T01:19:21;15.00;99.90
7762;DHT22;3925;48.636;9.516;2022-07-12T01:21:51;15.00;99.90
7762;DHT22;3925;48.636;9.516;2022-07-12T01:24:20;15.10;99.90
7762;DHT22;3925;48.636;9.516;2022-07-12T01:26:49;15.00;99.90
7762;DHT22;3925;48.636;9.516;2022-07-12T01:29:18;15.00;99.90
7762;DHT22;3925;48.636;9.516;2022-07-12T01:31:45;14.90;99.90
7762;DHT22;3925;48.636;9.516;2022-07-12T01:34:12;14.80;99.90
7762;DHT22;3925;48.636;9.516;2022-07-12T01:36:40;14.80;99.90
7762;DHT22;3925;48.636;9.516;2022-07-12T01:39:07;14.80;99.90
7762;DHT22;3925;48.636;9.516;2022-07-12T01:41:36;14.70;99.90
7762;DHT22;3925;48.636;9.516;2022-07-12T01:44:03;14.70;99.90
7762;DHT22;3925;48.636;9.516;2022-07-12T01:46:30;14.70;99.90
7762;DHT22;3925;48.636;9.516;2022-07-12T01:48:57;14.70;99.90
7762;DHT22;3925;48.636;9.516;2022-07-12T01:51:24;14.70;99.90
7762;DHT22;3925;48.636;9.516;2022-07-12T01:53:51;14.70;99.90
7762;DHT22;3925;48.636;9.516;2022-07-12T01:56:18;14.70;99.90
7762;DHT22;3925;48.636;9.516;2022-07-12T01:58:47;14.50;99.90
7762;DHT22;3925;48.636;9.516;2022-07-12T02:01:14;14.40;99.90
7762;DHT22;3925;48.636;9.516;2022-07-12T02:03:41;14.50;99.90
7762;DHT22;3925;48.636;9.516;2022-07-12T02:06:08;14.50;99.90
7762;DHT22;3925;48.636;9.516;2022-07-12T02:08:34;14.50;99.90
7762;DHT22;3925;48.636;9.516;2022-07-12T02:11:01;14.50;99.90
7762;DHT22;3925;48.636;9.516;2022-07-12T02:13:28;14.50;99.90
7762;DHT22;3925;48.636;9.516;2022-07-12T02:15:57;14.50;99.90
7762;DHT22;3925;48.636;9.516;2022-07-12T02:18:23;14.50;99.90
7762;DHT22;3925;48.636;9.516;2022-07-12T02:20:50;14.40;99.90
7762;DHT22;3925;48.636;9.516;2022-07-12T02:23:17;14.50;99.90
7762;DHT22;3925;48.636;9.516;2022-07-12T02:25:44;14.40;99.90
7762;DHT22;3925;48.636;9.516;2022-07-12T02:28:11;14.50;99.90
7762;DHT22;3925;48.636;9.516;2022-07-12T02:30:38;14.50;99.90
7762;DHT22;3925;48.636;9.516;2022-07-12T02:33:06;14.50;99.90
7762;DHT22;3925;48.636;9.516;2022-07-12T02:35:33;14.50;99.90
7762;DHT22;3925;48.636;9.516;2022-07-12T02:38:00;14.50;99.90
7762;DHT22;3925;48.636;9.516;2022-07-12T02:40:27;14.50;99.90
7762;DHT22;3925;48.636;9.516;2022-07-12T02:43:11;14.40;99.90
7762;DHT22;3925;48.636;9.516;2022-07-12T02:45:39;14.50;99.90
7762;DHT22;3925;48.636;9.516;2022-07-12T02:48:07;14.50;99.90
7762;DHT22;3925;48.636;9.516;2022-07-12T02:50:36;14.50;99.90
7762;DHT22;3925;48.636;9.516;2022-07-12T02:53:03;14.50;99.90
7762;DHT22;3925;48.636;9.516;2022-07-12T02:55:30;14.50;99.90
7762;DHT22;3925;48.636;9.516;2022-07-12T02:57:57;14.40;99.90
7762;DHT22;3925;48.636;9.516;2022-07-12T03:00:24;14.40;99.90
7762;DHT22;3925;48.636;9.516;2022-07-12T03:02:52;14.30;99.90
7762;DHT22;3925;48.636;9.516;2022-07-12T03:05:20;14.30;99.90
7762;DHT22;3925;48.636;9.516;2022-07-12T03:07:47;14.20;99.90
7762;DHT22;3925;48.636;9.516;2022-07-12T03:10:14;14.20;99.90
7762;DHT22;3925;48.636;9.516;2022-07-12T03:12:42;14.30;99.90
7762;DHT22;3925;48.636;9.516;2022-07-12T03:15:09;14.40;99.90
7762;DHT22;3925;48.636;9.516;2022-07-12T03:17:36;14.40;99.90
7762;DHT22;3925;48.636;9.516;2022-07-12T03:20:04;14.50;99.90
7762;DHT22;3925;48.636;9.516;2022-07-12T03:22:35;14.40;99.90
7762;DHT22;3925;48.636;9.516;2022-07-12T03:25:02;14.40;99.90
7762;DHT22;3925;48.636;9.516;2022-07-12T03:27:29;14.30;99.90
7762;DHT22;3925;48.636;9.516;2022-07-12T03:29:57;14.20;99.90
7762;DHT22;3925;48.636;9.516;2022-07-12T03:32:25;14.10;99.90
7762;DHT22;3925;48.636;9.516;2022-07-12T03:34:52;14.10;99.90
7762;DHT22;3925;48.636;9.516;2022-07-12T03:37:19;14.00;99.90
7762;DHT22;3925;48.636;9.516;2022-07-12T03:39:48;14.10;99.90
7762;DHT22;3925;48.636;9.516;2022-07-12T03:42:15;14.10;99.90
7762;DHT22;3925;48.636;9.516;2022-07-12T03:44:42;14.10;99.90
7762;DHT22;3925;48.636;9.516;2022-07-12T03:47:09;14.10;99.90
7762;DHT22;3925;48.636;9.516;2022-07-12T03:49:35;14.10;99.90
7762;DHT22;3925;48.636;9.516;2022-07-12T03:52:03;14.10;99.90
7762;DHT22;3925;48.636;9.516;2022-07-12T03:54:30;14.10;99.90
7762;DHT22;3925;48.636;9.516;2022-07-12T03:56:58;14.00;99.90
7762;DHT22;3925;48.636;9.516;2022-07-12T03:59:41;14.00;99.90
7762;DHT22;3925;48.636;9.516;2022-07-12T04:02:08;14.30;99.90
7762;DHT22;3925;48.636;9.516;2022-07-12T04:04:35;14.20;99.90
7762;DHT22;3925;48.636;9.516;2022-07-12T04:07:03;14.30;99.90
7762;DHT22;3925;48.636;9.516;2022-07-12T04:09:30;14.30;99.90
7762;DHT22;3925;48.636;9.516;2022-07-12T04:11:58;14.40;99.90
7762;DHT22;3925;48.636;9.516;2022-07-12T04:14:25;14.50;99.90
7762;DHT22;3925;48.636;9.516;2022-07-12T04:16:53;14.50;99.90
7762;DHT22;3925;48.636;9.516;2022-07-12T04:19:20;14.50;99.90
7762;DHT22;3925;48.636;9.516;2022-07-12T04:21:50;14.50;99.90
7762;DHT22;3925;48.636;9.516;2022-07-12T04:24:17;14.50;99.90
7762;DHT22;3925;48.636;9.516;2022-07-12T04:26:44;14.50;99.90
7762;DHT22;3925;48.636;9.516;2022-07-12T04:29:12;14.50;99.90
7762;DHT22;3925;48.636;9.516;2022-07-12T04:31:39;14.50;99.90
7762;DHT22;3925;48.636;9.516;2022-07-12T04:34:06;14.40;99.90
7762;DHT22;3925;48.636;9.516;2022-07-12T04:36:33;14.50;99.90
7762;DHT22;3925;48.636;9.516;2022-07-12T04:39:00;14.60;99.90
7762;DHT22;3925;48.636;9.516;2022-07-12T04:41:27;14.70;99.90
7762;DHT22;3925;48.636;9.516;2022-07-12T04:43:54;14.80;99.90
7762;DHT22;3925;48.636;9.516;2022-07-12T04:46:22;14.80;99.90
7762;DHT22;3925;48.636;9.516;2022-07-12T04:48:49;14.90;99.90
7762;DHT22;3925;48.636;9.516;2022-07-12T04:51:16;14.90;99.90
7762;DHT22;3925;48.636;9.516;2022-07-12T04:53:43;14.90;99.90
7762;DHT22;3925;48.636;9.516;2022-07-12T04:56:10;14.90;99.90
7762;DHT22;3925;48.636;9.516;2022-07-12T04:58:37;15.00;99.90
7762;DHT22;3925;48.636;9.516;2022-07-12T05:01:04;15.00;99.90
7762;DHT22;3925;48.636;9.516;2022-07-12T05:03:34;15.20;99.90
7762;DHT22;3925;48.636;9.516;2022-07-12T05:06:01;15.40;99.90
7762;DHT22;3925;48.636;9.516;2022-07-12T05:08:28;15.60;99.90
7762;DHT22;3925;48.636;9.516;2022-07-12T05:10:55;15.60;99.90
7762;DHT22;3925;48.636;9.516;2022-07-12T05:13:22;15.80;99.90
7762;DHT22;3925;48.636;9.516;2022-07-12T05:15:49;16.00;99.90
7762;DHT22;3925;48.636;9.516;2022-07-12T05:18:16;16.20;99.90
7762;DHT22;3925;48.636;9.516;2022-07-12T05:20:45;16.90;99.90
7762;DHT22;3925;48.636;9.516;2022-07-12T05:23:12;18.00;99.90
7762;DHT22;3925;48.636;9.516;2022-07-12T05:25:38;19.30;99.90
7762;DHT22;3925;48.636;9.516;2022-07-12T05:28:06;20.30;99.90
7762;DHT22;3925;48.636;9.516;2022-07-12T05:30:33;21.20;99.90
7762;DHT22;3925;48.636;9.516;2022-07-12T05:32:59;22.20;99.90
7762;DHT22;3925;48.636;9.516;2022-07-12T05:35:27;23.50;99.90
7762;DHT22;3925;48.636;9.516;2022-07-12T05:37:55;25.50;98.30
7762;DHT22;3925;48.636;9.516;2022-07-12T05:40:22;27.50;94.20
7762;DHT22;3925;48.636;9.516;2022-07-12T05:42:49;29.30;88.70
7762;DHT22;3925;48.636;9.516;2022-07-12T05:45:17;30.50;81.10
7762;DHT22;3925;48.636;9.516;2022-07-12T05:47:44;31.90;74.00
7762;DHT22;3925;48.636;9.516;2022-07-12T05:50:11;33.00;67.90
7762;DHT22;3925;48.636;9.516;2022-07-12T05:52:38;33.80;61.60
7762;DHT22;3925;48.636;9.516;2022-07-12T05:55:23;34.40;58.40
7762;DHT22;3925;48.636;9.516;2022-07-12T05:57:50;34.80;54.60
7762;DHT22;3925;48.636;9.516;2022-07-12T06:00:17;35.40;52.60
7762;DHT22;3925;48.636;9.516;2022-07-12T06:02:44;35.90;51.10
7762;DHT22;3925;48.636;9.516;2022-07-12T06:05:11;36.10;49.70
7762;DHT22;3925;48.636;9.516;2022-07-12T06:07:38;35.70;48.50
7762;DHT22;3925;48.636;9.516;2022-07-12T06:10:06;36.30;47.80
7762;DHT22;3925;48.636;9.516;2022-07-12T06:12:34;36.70;47.40
7762;DHT22;3925;48.636;9.516;2022-07-12T06:15:03;36.60;46.80
7762;DHT22;3925;48.636;9.516;2022-07-12T06:17:32;37.20;46.00
7762;DHT22;3925;48.636;9.516;2022-07-12T06:19:59;37.70;44.80
7762;DHT22;3925;48.636;9.516;2022-07-12T06:22:26;38.10;44.20
7762;DHT22;3925;48.636;9.516;2022-07-12T06:24:53;38.40;42.50
7762;DHT22;3925;48.636;9.516;2022-07-12T06:27:20;38.60;42.60
7762;DHT22;3925;48.636;9.516;2022-07-12T06:29:48;38.70;40.80
7762;DHT22;3925;48.636;9.516;2022-07-12T06:32:15;38.40;41.80
7762;DHT22;3925;48.636;9.516;2022-07-12T06:34:42;38.80;41.20
7762;DHT22;3925;48.636;9.516;2022-07-12T06:37:10;39.30;40.30
7762;DHT22;3925;48.636;9.516;2022-07-12T06:39:38;39.40;39.10
7762;DHT22;3925;48.636;9.516;2022-07-12T06:42:05;38.80;39.20
7762;DHT22;3925;48.636;9.516;2022-07-12T06:44:33;38.90;39.30
7762;DHT22;3925;48.636;9.516;2022-07-12T06:47:02;38.80;38.90
7762;DHT22;3925;48.636;9.516;2022-07-12T06:49:30;39.50;37.90
7762;DHT22;3925;48.636;9.516;2022-07-12T06:51:57;39.70;37.30
7762;DHT22;3925;48.636;9.516;2022-07-12T06:54:24;39.90;36.40
7762;DHT22;3925;48.636;9.516;2022-07-12T06:56:51;40.20;37.00
7762;DHT22;3925;48.636;9.516;2022-07-12T06:59:18;40.20;37.30
7762;DHT22;3925;48.636;9.516;2022-07-12T07:01:45;40.40;36.60
7762;DHT22;3925;48.636;9.516;2022-07-12T07:04:14;40.30;36.50
7762;DHT22;3925;48.636;9.516;2022-07-12T07:06:41;40.80;35.90
7762;DHT22;3925;48.636;9.516;2022-07-12T07:09:08;40.90;35.70
7762;DHT22;3925;48.636;9.516;2022-07-12T07:11:36;41.10;35.40
7762;DHT22;3925;48.636;9.516;2022-07-12T07:14:03;41.40;34.40
7762;DHT22;3925;48.636;9.516;2022-07-12T07:16:30;40.90;35.80
7762;DHT22;3925;48.636;9.516;2022-07-12T07:18:57;41.00;35.50
7762;DHT22;3925;48.636;9.516;2022-07-12T07:21:25;41.70;34.80
7762;DHT22;3925;48.636;9.516;2022-07-12T07:23:53;41.80;33.40
7762;DHT22;3925;48.636;9.516;2022-07-12T07:26:20;42.10;33.60
7762;DHT22;3925;48.636;9.516;2022-07-12T07:28:48;41.90;31.80
7762;DHT22;3925;48.636;9.516;2022-07-12T07:31:33;41.80;33.50
7762;DHT22;3925;48.636;9.516;2022-07-12T07:34:00;41.70;33.90
7762;DHT22;3925;48.636;9.516;2022-07-12T07:36:29;42.50;32.50
7762;DHT22;3925;48.636;9.516;2022-07-12T07:38:57;42.70;32.30
7762;DHT22;3925;48.636;9.516;2022-07-12T07:41:24;41.40;32.60
7762;DHT22;3925;48.636;9.516;2022-07-12T07:43:51;41.70;33.30
7762;DHT22;3925;48.636;9.516;2022-07-12T07:46:18;42.30;33.10
7762;DHT22;3925;48.636;9.516;2022-07-12T07:48:47;42.30;32.80
7762;DHT22;3925;48.636;9.516;2022-07-12T07:51:14;42.20;33.00
7762;DHT22;3925;48.636;9.516;2022-07-12T07:53:42;41.20;33.90
7762;DHT22;3925;48.636;9.516;2022-07-12T07:56:09;41.40;34.50
7762;DHT22;3925;48.636;9.516;2022-07-12T07:58:36;41.20;33.40
7762;DHT22;3925;48.636;9.516;2022-07-12T08:01:03;41.60;33.70
7762;DHT22;3925;48.636;9.516;2022-07-12T08:03:30;41.80;32.90
7762;DHT22;3925;48.636;9.516;2022-07-12T08:05:57;42.00;32.20
7762;DHT22;3925;48.636;9.516;2022-07-12T08:08:26;42.50;31.20
7762;DHT22;3925;48.636;9.516;2022-07-12T08:10:55;43.10;31.50
7762;DHT22;3925;48.636;9.516;2022-07-12T08:13:22;42.90;29.90
7762;DHT22;3925;48.636;9.516;2022-07-12T08:15:49;43.20;29.60
7762;DHT22;3925;48.636;9.516;2022-07-12T08:18:16;43.60;28.60
7762;DHT22;3925;48.636;9.516;2022-07-12T08:20:43;43.80;27.70
7762;DHT22;3925;48.636;9.516;2022-07-12T08:23:10;43.10;27.70
7762;DHT22;3925;48.636;9.516;2022-07-12T08:25:37;42.40;27.80
7762;DHT22;3925;48.636;9.516;2022-07-12T08:28:06;42.30;28.70
7762;DHT22;3925;48.636;9.516;2022-07-12T08:30:33;43.00;28.10
7762;DHT22;3925;48.636;9.516;2022-07-12T08:33:00;43.50;28.40
7762;DHT22;3925;48.636;9.516;2022-07-12T08:35:27;43.90;27.20
7762;DHT22;3925;48.636;9.516;2022-07-12T08:37:54;43.20;27.00
7762;DHT22;3925;48.636;9.516;2022-07-12T08:40:21;42.50;27.80
7762;DHT22;3925;48.636;9.516;2022-07-12T08:42:48;41.80;29.30
7762;DHT22;3925;48.636;9.516;2022-07-12T08:45:17;41.20;29.80
7762;DHT22;3925;48.636;9.516;2022-07-12T08:47:44;41.80;29.50
7762;DHT22;3925;48.636;9.516;2022-07-12T08:50:15;40.50;29.50
7762;DHT22;3925;48.636;9.516;2022-07-12T08:52:47;39.40;31.30
7762;DHT22;3925;48.636;9.516;2022-07-12T08:55:23;38.30;32.70
7762;DHT22;3925;48.636;9.516;2022-07-12T08:57:51;38.50;33.10
7762;DHT22;3925;48.636;9.516;2022-07-12T09:00:21;39.00;31.70
7762;DHT22;3925;48.636;9.516;2022-07-12T09:02:49;38.80;32.30
7762;DHT22;3925;48.636;9.516;2022-07-12T09:05:18;39.90;32.20
7762;DHT22;3925;48.636;9.516;2022-07-12T09:07:45;40.30;30.80
7762;DHT22;3925;48.636;9.516;2022-07-12T09:10:13;40.00;30.80
7762;DHT22;3925;48.636;9.516;2022-07-12T09:12:41;37.80;33.10
7762;DHT22;3925;48.636;9.516;2022-07-12T09:15:15;36.20;36.00
7762;DHT22;3925;48.636;9.516;2022-07-12T09:17:55;35.10;38.60
7762;DHT22;3925;48.636;9.516;2022-07-12T09:20:24;33.70;42.40
7762;DHT22;3925;48.636;9.516;2022-07-12T09:22:53;33.10;41.40
7762;DHT22;3925;48.636;9.516;2022-07-12T09:25:21;32.30;42.10
7762;DHT22;3925;48.636;9.516;2022-07-12T09:27:50;32.80;43.30
7762;DHT22;3925;48.636;9.516;2022-07-12T09:30:18;31.90;42.50
7762;DHT22;3925;48.636;9.516;2022-07-12T09:32:58;31.80;44.40
7762;DHT22;3925;48.636;9.516;2022-07-12T09:35:43;31.40;43.60
7762;DHT22;3925;48.636;9.516;2022-07-12T09:38:28;31.70;41.80
7762;DHT22;3925;48.636;9.516;2022-07-12T09:40:56;31.50;43.30
7762;DHT22;3925;48.636;9.516;2022-07-12T09:43:23;33.20;43.70
7762;DHT22;3925;48.636;9.516;2022-07-12T09:45:51;33.20;43.40
7762;DHT22;3925;48.636;9.516;2022-07-12T09:48:21;32.30;42.60
7762;DHT22;3925;48.636;9.516;2022-07-12T09:50:49;31.20;44.50
7762;DHT22;3925;48.636;9.516;2022-07-12T09:53:20;31.90;45.50
7762;DHT22;3925;48.636;9.516;2022-07-12T09:55:51;31.90;44.70
7762;DHT22;3925;48.636;9.516;2022-07-12T09:58:23;31.30;45.50
7762;DHT22;3925;48.636;9.516;2022-07-12T10:00:51;30.90;45.00
7762;DHT22;3925;48.636;9.516;2022-07-12T10:03:23;32.10;45.80
7762;DHT22;3925;48.636;9.516;2022-07-12T10:05:54;32.20;44.00
7762;DHT22;3925;48.636;9.516;2022-07-12T10:08:21;32.20;44.60
7762;DHT22;3925;48.636;9.516;2022-07-12T10:10:49;31.80;44.20
7762;DHT22;3925;48.636;9.516;2022-07-12T10:13:18;31.30;46.90
7762;DHT22;3925;48.636;9.516;2022-07-12T10:15:47;31.20;48.00
7762;DHT22;3925;48.636;9.516;2022-07-12T10:18:22;30.90;49.10
7762;DHT22;3925;48.636;9.516;2022-07-12T10:20:49;30.50;47.80
7762;DHT22;3925;48.636;9.516;2022-07-12T10:23:34;30.00;48.70
7762;DHT22;3925;48.636;9.516;2022-07-12T10:26:25;30.70;50.90
7762;DHT22;3925;48.636;9.516;2022-07-12T10:29:04;31.30;49.20
7762;DHT22;3925;48.636;9.516;2022-07-12T10:31:34;32.70;46.10
7762;DHT22;3925;48.636;9.516;2022-07-12T10:34:20;32.70;44.00
7762;DHT22;3925;48.636;9.516;2022-07-12T10:37:10;32.60;45.70
7762;DHT22;3925;48.636;9.516;2022-07-12T10:39:37;33.60;43.60
7762;DHT22;3925;48.636;9.516;2022-07-12T10:42:13;34.20;42.80
7762;DHT22;3925;48.636;9.516;2022-07-12T10:44:43;34.10;42.10
7762;DHT22;3925;48.636;9.516;2022-07-12T10:47:11;33.60;42.10
7762;DHT22;3925;48.636;9.516;2022-07-12T10:49:47;32.50;42.10
7762;DHT22;3925;48.636;9.516;2022-07-12T10:52:23;31.50;43.60
7762;DHT22;3925;48.636;9.516;2022-07-12T10:55:16;31.40;46.30
7762;DHT22;3925;48.636;9.516;2022-07-12T10:57:44;31.30;45.40
7762;DHT22;3925;48.636;9.516;2022-07-12T11:00:14;30.80;45.20
7762;DHT22;3925;48.636;9.516;2022-07-12T11:02:41;30.50;45.80
7762;DHT22;3925;48.636;9.516;2022-07-12T11:05:10;29.90;49.40
7762;DHT22;3925;48.636;9.516;2022-07-12T11:07:37;30.20;47.90
7762;DHT22;3925;48.636;9.516;2022-07-12T11:10:05;30.30;49.10
7762;DHT22;3925;48.636;9.516;2022-07-12T11:12:33;29.80;49.30
7762;DHT22;3925;48.636;9.516;2022-07-12T11:15:00;29.60;49.40
7762;DHT22;3925;48.636;9.516;2022-07-12T11:17:30;29.50;52.60
7762;DHT22;3925;48.636;9.516;2022-07-12T11:20:10;29.50;48.90
7762;DHT22;3925;48.636;9.516;2022-07-12T11:22:39;29.60;51.40
7762;DHT22;3925;48.636;9.516;2022-07-12T11:25:08;29.60;49.70
7762;DHT22;3925;48.636;9.516;2022-07-12T11:27:35;29.70;49.70
7762;DHT22;3925;48.636;9.516;2022-07-12T11:30:04;29.40;49.00
7762;DHT22;3925;48.636;9.516;2022-07-12T11:32:35;29.10;49.10
7762;DHT22;3925;48.636;9.516;2022-07-12T11:35:04;29.20;50.90
7762;DHT22;3925;48.636;9.516;2022-07-12T11:37:32;29.10;51.00
7762;DHT22;3925;48.636;9.516;2022-07-12T11:39:59;28.80;52.40
7762;DHT22;3925;48.636;9.516;2022-07-12T11:42:26;28.50;51.70
7762;DHT22;3925;48.636;9.516;2022-07-12T11:44:53;28.40;53.20
7762;DHT22;3925;48.636;9.516;2022-07-12T11:47:22;28.60;53.10
7762;DHT22;3925;48.636;9.516;2022-07-12T11:49:50;28.20;52.70
7762;DHT22;3925;48.636;9.516;2022-07-12T11:52:18;28.30;52.30
7762;DHT22;3925;48.636;9.516;2022-07-12T11:54:49;28.10;51.20
7762;DHT22;3925;48.636;9.516;2022-07-12T11:57:19;28.20;52.00
7762;DHT22;3925;48.636;9.516;2022-07-12T11:59:46;28.10;51.90
7762;DHT22;3925;48.636;9.516;2022-07-12T12:02:15;27.80;52.90
7762;DHT22;3925;48.636;9.516;2022-07-12T12:04:45;27.60;53.10
7762;DHT22;3925;48.636;9.516;2022-07-12T12:07:12;27.50;52.90
7762;DHT22;3925;48.636;9.516;2022-07-12T12:10:03;27.60;53.40
7762;DHT22;3925;48.636;9.516;2022-07-12T12:12:38;27.10;53.00
7762;DHT22;3925;48.636;9.516;2022-07-12T12:15:06;27.20;55.20
7762;DHT22;3925;48.636;9.516;2022-07-12T12:17:34;26.70;55.10
7762;DHT22;3925;48.636;9.516;2022-07-12T12:20:12;26.60;56.60
7762;DHT22;3925;48.636;9.516;2022-07-12T12:22:39;26.60;56.40
7762;DHT22;3925;48.636;9.516;2022-07-12T12:25:07;26.60;55.80
7762;DHT22;3925;48.636;9.516;2022-07-12T12:27:43;26.90;56.60
7762;DHT22;3925;48.636;9.516;2022-07-12T12:30:11;26.70;54.90
7762;DHT22;3925;48.636;9.516;2022-07-12T12:32:46;26.70;54.90
7762;DHT22;3925;48.636;9.516;2022-07-12T12:35:15;26.60;57.40
7762;DHT22;3925;48.636;9.516;2022-07-12T12:37:49;26.60;57.20
7762;DHT22;3925;48.636;9.516;2022-07-12T12:40:22;26.60;57.00
7762;DHT22;3925;48.636;9.516;2022-07-12T12:42:50;26.70;55.20
7762;DHT22;3925;48.636;9.516;2022-07-12T12:45:22;26.60;53.00
7762;DHT22;3925;48.636;9.516;2022-07-12T12:47:56;26.90;55.30
7762;DHT22;3925;48.636;9.516;2022-07-12T12:50:39;26.50;55.00
7762;DHT22;3925;48.636;9.516;2022-07-12T12:53:10;26.60;54.10
7762;DHT22;3925;48.636;9.516;2022-07-12T12:55:39;26.90;55.60
7762;DHT22;3925;48.636;9.516;2022-07-12T12:58:07;26.90;56.10
7762;DHT22;3925;48.636;9.516;2022-07-12T13:00:36;27.20;56.60
7762;DHT22;3925;48.636;9.516;2022-07-12T13:03:05;27.10;55.20
7762;DHT22;3925;48.636;9.516;2022-07-12T13:05:32;27.20;53.50
7762;DHT22;3925;48.636;9.516;2022-07-12T13:08:00;27.20;54.40
7762;DHT22;3925;48.636;9.516;2022-07-12T13:10:27;27.00;54.50
7762;DHT22;3925;48.636;9.516;2022-07-12T13:12:56;26.90;54.70
7762;DHT22;3925;48.636;9.516;2022-07-12T13:15:25;27.00;55.40
7762;DHT22;3925;48.636;9.516;2022-07-12T13:17:52;26.80;54.40
7762;DHT22;3925;48.636;9.516;2022-07-12T13:20:19;26.50;54.20
7762;DHT22;3925;48.636;9.516;2022-07-12T13:22:46;26.40;56.30
7762;DHT22;3925;48.636;9.516;2022-07-12T13:25:14;26.30;55.80
7762;DHT22;3925;48.636;9.516;2022-07-12T13:27:42;26.20;56.00
7762;DHT22;3925;48.636;9.516;2022-07-12T13:30:12;26.00;56.20
7762;DHT22;3925;48.636;9.516;2022-07-12T13:32:40;26.00;58.10
7762;DHT22;3925;48.636;9.516;2022-07-12T13:35:08;25.90;56.00
7762;DHT22;3925;48.636;9.516;2022-07-12T13:37:36;25.80;56.20
7762;DHT22;3925;48.636;9.516;2022-07-12T13:40:05;25.80;56.40
7762;DHT22;3925;48.636;9.516;2022-07-12T13:42:45;25.70;57.80
7762;DHT22;3925;48.636;9.516;2022-07-12T13:45:15;25.70;57.90
7762;DHT22;3925;48.636;9.516;2022-07-12T13:47:43;25.60;57.00
7762;DHT22;3925;48.636;9.516;2022-07-12T13:50:12;25.50;58.20
7762;DHT22;3925;48.636;9.516;2022-07-12T13:52:39;25.80;58.60
7762;DHT22;3925;48.636;9.516;2022-07-12T13:55:08;25.70;57.30
7762;DHT22;3925;48.636;9.516;2022-07-12T13:57:36;25.70;56.50
7762;DHT22;3925;48.636;9.516;2022-07-12T14:00:05;25.70;56.80
7762;DHT22;3925;48.636;9.516;2022-07-12T14:02:38;25.80;57.60
7762;DHT22;3925;48.636;9.516;2022-07-12T14:05:09;25.80;57.70
7762;DHT22;3925;48.636;9.516;2022-07-12T14:07:37;25.90;57.90
7762;DHT22;3925;48.636;9.516;2022-07-12T14:10:05;25.90;58.60
7762;DHT22;3925;48.636;9.516;2022-07-12T14:12:33;25.90;56.90
7762;DHT22;3925;48.636;9.516;2022-07-12T14:15:00;25.80;57.10
7762;DHT22;3925;48.636;9.516;2022-07-12T14:18:04;25.80;58.40
7762;DHT22;3925;48.636;9.516;2022-07-12T14:20:32;25.70;57.00
7762;DHT22;3925;48.636;9.516;2022-07-12T14:23:00;25.80;58.80
7762;DHT22;3925;48.636;9.516;2022-07-12T14:25:27;25.90;57.40
7762;DHT22;3925;48.636;9.516;2022-07-12T14:27:54;26.00;58.00
7762;DHT22;3925;48.636;9.516;2022-07-12T14:30:20;26.10;57.10
7762;DHT22;3925;48.636;9.516;2022-07-12T14:32:48;26.20;55.10
7762;DHT22;3925;48.636;9.516;2022-07-12T14:35:16;26.10;56.60
7762;DHT22;3925;48.636;9.516;2022-07-12T14:37:43;26.10;58.30
7762;DHT22;3925;48.636;9.516;2022-07-12T14:40:11;26.10;56.00
7762;DHT22;3925;48.636;9.516;2022-07-12T14:42:38;26.10;57.10
7762;DHT22;3925;48.636;9.516;2022-07-12T14:45:07;26.10;57.90
7762;DHT22;3925;48.636;9.516;2022-07-12T14:47:34;26.10;57.10
7762;DHT22;3925;48.636;9.516;2022-07-12T14:50:01;26.10;57.30
7762;DHT22;3925;48.636;9.516;2022-07-12T14:52:32;26.20;56.70
7762;DHT22;3925;48.636;9.516;2022-07-12T14:54:59;26.10;57.50
7762;DHT22;3925;48.636;9.516;2022-07-12T14:57:26;26.00;57.70
7762;DHT22;3925;48.636;9.516;2022-07-12T14:59:53;26.00;58.40
7762;DHT22;3925;48.636;9.516;2022-07-12T15:02:20;26.10;56.30
7762;DHT22;3925;48.636;9.516;2022-07-12T15:04:47;26.10;55.90
7762;DHT22;3925;48.636;9.516;2022-07-12T15:07:14;26.10;56.10
7762;DHT22;3925;48.636;9.516;2022-07-12T15:09:43;26.10;57.60
7762;DHT22;3925;48.636;9.516;2022-07-12T15:12:11;26.00;57.80
7762;DHT22;3925;48.636;9.516;2022-07-12T15:14:38;25.90;56.70
7762;DHT22;3925;48.636;9.516;2022-07-12T15:17:05;25.90;54.90
7762;DHT22;3925;48.636;9.516;2022-07-12T15:19:32;25.70;55.50
7762;DHT22;3925;48.636;9.516;2022-07-12T15:21:59;25.70;57.40
7762;DHT22;3925;48.636;9.516;2022-07-12T15:24:27;25.60;57.10
7762;DHT22;3925;48.636;9.516;2022-07-12T15:26:55;25.50;57.40
7762;DHT22;3925;48.636;9.516;2022-07-12T15:29:23;25.40;57.50
7762;DHT22;3925;48.636;9.516;2022-07-12T15:31:50;25.50;58.10
7762;DHT22;3925;48.636;9.516;2022-07-12T15:34:17;25.50;58.90
7762;DHT22;3925;48.636;9.516;2022-07-12T15:36:45;25.50;57.50
7762;DHT22;3925;48.636;9.516;2022-07-12T15:39:12;25.40;57.10
7762;DHT22;3925;48.636;9.516;2022-07-12T15:41:39;25.50;58.70
7762;DHT22;3925;48.636;9.516;2022-07-12T15:44:08;25.60;57.60
7762;DHT22;3925;48.636;9.516;2022-07-12T15:46:35;25.70;58.40
7762;DHT22;3925;48.636;9.516;2022-07-12T15:49:02;25.70;57.70
7762;DHT22;3925;48.636;9.516;2022-07-12T15:51:29;25.70;57.70
7762;DHT22;3925;48.636;9.516;2022-07-12T15:54:13;25.80;58.00
7762;DHT22;3925;48.636;9.516;2022-07-12T15:56:40;25.70;57.10
7762;DHT22;3925;48.636;9.516;2022-07-12T15:59:09;25.70;57.80
7762;DHT22;3925;48.636;9.516;2022-07-12T16:01:36;25.70;56.80
7762;DHT22;3925;48.636;9.516;2022-07-12T16:04:03;25.80;56.40
7762;DHT22;3925;48.636;9.516;2022-07-12T16:06:30;25.70;56.10
7762;DHT22;3925;48.636;9.516;2022-07-12T16:08:57;25.70;56.10
7762;DHT22;3925;48.636;9.516;2022-07-12T16:11:24;25.70;58.10